LXP352 SCEL-SCFA
Flight info
| Callsign | LXP352 |
|---|---|
| Flight time | 2h 2m |
| Altitude | 36000 |
| Route | DONTI5B DONTI UQ802 LONEK LONEK2A |
| Aircraft | A321/M-SDE3FGHIRWY/LB1 |
Departure
| Time | 2026-04-21 21:29 |
|---|---|
| Airport | Comodoro Arturo Merino Benítez International Airport (SCEL) |
Arrival
| Time | 2026-04-21 23:32 |
|---|---|
| Airport | Andrés Sabella Gálvez International Airport (SCFA) |
| Time | Latitude | Longitude | Altitude | Speed | Heading |
|---|---|---|---|---|---|
| 2026-04-21 21:29 | -33.49253 | -70.93931 | 10175 ft | 277 kts | 300° |
| 2026-04-21 21:29 | -33.48252 | -70.95980 | 10542 ft | 295 kts | 308° |
| 2026-04-21 21:29 | -33.46815 | -70.97845 | 10794 ft | 313 kts | 320° |
| 2026-04-21 21:30 | -33.44983 | -70.99314 | 11363 ft | 321 kts | 333° |
| 2026-04-21 21:30 | -33.42893 | -71.00294 | 12095 ft | 324 kts | 340° |
| 2026-04-21 21:30 | -33.40739 | -71.01143 | 12868 ft | 327 kts | 340° |
| 2026-04-21 21:30 | -33.38574 | -71.01995 | 13654 ft | 330 kts | 340° |
| 2026-04-21 21:31 | -33.36380 | -71.02855 | 14348 ft | 333 kts | 340° |
| 2026-04-21 21:31 | -33.34164 | -71.03722 | 15018 ft | 337 kts | 339° |
| 2026-04-21 21:31 | -33.31916 | -71.04603 | 15673 ft | 341 kts | 339° |
| 2026-04-21 21:31 | -33.29650 | -71.05494 | 16307 ft | 346 kts | 339° |
| 2026-04-21 21:32 | -33.27349 | -71.06398 | 16946 ft | 350 kts | 339° |
| 2026-04-21 21:32 | -33.25053 | -71.07296 | 17576 ft | 354 kts | 338° |
| 2026-04-21 21:32 | -33.22699 | -71.08215 | 18156 ft | 358 kts | 338° |
| 2026-04-21 21:32 | -33.20319 | -71.09140 | 18703 ft | 362 kts | 338° |
| 2026-04-21 21:33 | -33.17911 | -71.10078 | 19251 ft | 365 kts | 337° |
| 2026-04-21 21:33 | -33.15481 | -71.11025 | 19818 ft | 367 kts | 337° |
| 2026-04-21 21:33 | -33.13052 | -71.11973 | 20352 ft | 368 kts | 337° |
| 2026-04-21 21:33 | -33.10611 | -71.12927 | 20839 ft | 371 kts | 336° |
| 2026-04-21 21:34 | -33.08145 | -71.13889 | 21356 ft | 374 kts | 336° |
| 2026-04-21 21:34 | -33.05666 | -71.14851 | 21846 ft | 376 kts | 336° |
| 2026-04-21 21:34 | -33.03166 | -71.15819 | 22404 ft | 379 kts | 336° |
| 2026-04-21 21:34 | -33.00650 | -71.16793 | 22908 ft | 382 kts | 336° |
| 2026-04-21 21:35 | -32.98116 | -71.17774 | 23422 ft | 384 kts | 335° |
| 2026-04-21 21:35 | -32.95533 | -71.18674 | 23881 ft | 391 kts | 342° |
| 2026-04-21 21:35 | -32.92793 | -71.19054 | 24306 ft | 402 kts | 351° |
| 2026-04-21 21:35 | -32.89983 | -71.19110 | 24761 ft | 405 kts | 352° |
| 2026-04-21 21:36 | -32.87160 | -71.19162 | 25212 ft | 407 kts | 352° |
| 2026-04-21 21:36 | -32.84326 | -71.19214 | 25657 ft | 409 kts | 352° |
| 2026-04-21 21:36 | -32.81514 | -71.19268 | 26075 ft | 410 kts | 352° |
| 2026-04-21 21:36 | -32.78648 | -71.19321 | 26496 ft | 413 kts | 352° |
| 2026-04-21 21:37 | -32.75773 | -71.19375 | 26902 ft | 414 kts | 351° |
| 2026-04-21 21:37 | -32.72891 | -71.19426 | 27358 ft | 415 kts | 351° |
| 2026-04-21 21:37 | -32.69998 | -71.19477 | 27779 ft | 416 kts | 351° |
| 2026-04-21 21:37 | -32.67101 | -71.19526 | 28195 ft | 418 kts | 351° |
| 2026-04-21 21:38 | -32.64186 | -71.19577 | 28618 ft | 420 kts | 351° |
| 2026-04-21 21:38 | -32.61261 | -71.19630 | 28974 ft | 421 kts | 351° |
| 2026-04-21 21:38 | -32.58325 | -71.19686 | 29365 ft | 423 kts | 351° |
| 2026-04-21 21:38 | -32.55377 | -71.19744 | 29742 ft | 425 kts | 351° |
| 2026-04-21 21:39 | -32.52417 | -71.19801 | 30115 ft | 426 kts | 351° |
| 2026-04-21 21:39 | -32.49444 | -71.19858 | 30433 ft | 428 kts | 350° |
| 2026-04-21 21:39 | -32.46461 | -71.19912 | 30740 ft | 429 kts | 350° |
| 2026-04-21 21:39 | -32.43468 | -71.19967 | 31055 ft | 431 kts | 350° |
| 2026-04-21 21:40 | -32.40474 | -71.20021 | 31488 ft | 429 kts | 350° |
| 2026-04-21 21:40 | -32.37495 | -71.20071 | 31971 ft | 427 kts | 349° |
| 2026-04-21 21:40 | -32.34532 | -71.20119 | 32388 ft | 425 kts | 349° |
| 2026-04-21 21:40 | -32.31582 | -71.20169 | 32824 ft | 423 kts | 349° |
| 2026-04-21 21:41 | -32.28644 | -71.20221 | 33278 ft | 422 kts | 349° |
| 2026-04-21 21:41 | -32.25718 | -71.20274 | 33716 ft | 419 kts | 348° |
| 2026-04-21 21:41 | -32.23794 | -71.20309 | 34027 ft | 418 kts | 348° |
| 2026-04-21 21:41 | -32.20897 | -71.20360 | 34427 ft | 415 kts | 348° |
| 2026-04-21 21:42 | -32.18012 | -71.20413 | 34804 ft | 414 kts | 347° |
| 2026-04-21 21:42 | -32.14171 | -71.20484 | 35259 ft | 412 kts | 347° |
| 2026-04-21 21:42 | -32.11337 | -71.20535 | 35605 ft | 411 kts | 347° |
| 2026-04-21 21:42 | -32.09410 | -71.20569 | 35826 ft | 411 kts | 347° |
| 2026-04-21 21:43 | -32.06555 | -71.20621 | 36103 ft | 411 kts | 347° |
| 2026-04-21 21:43 | -32.00884 | -71.20726 | 36153 ft | 404 kts | 346° |
| 2026-04-21 21:44 | -31.95277 | -71.20822 | 36156 ft | 402 kts | 346° |
| 2026-04-21 21:44 | -31.89690 | -71.20928 | 36151 ft | 402 kts | 347° |
| 2026-04-21 21:45 | -31.84140 | -71.21031 | 36149 ft | 402 kts | 347° |
| 2026-04-21 21:45 | -31.78556 | -71.21133 | 36151 ft | 401 kts | 347° |
| 2026-04-21 21:46 | -31.72936 | -71.20982 | 36122 ft | 406 kts | 350° |
| 2026-04-21 21:46 | -31.67269 | -71.20560 | 36133 ft | 409 kts | 351° |
| 2026-04-21 21:47 | -31.61595 | -71.20129 | 36139 ft | 408 kts | 351° |
| 2026-04-21 21:47 | -31.55939 | -71.19770 | 36146 ft | 407 kts | 350° |
| 2026-04-21 21:48 | -31.50282 | -71.19452 | 36146 ft | 408 kts | 350° |
| 2026-04-21 21:48 | -31.44618 | -71.19119 | 36114 ft | 407 kts | 350° |
| 2026-04-21 21:49 | -31.38960 | -71.18770 | 36130 ft | 407 kts | 350° |
| 2026-04-21 21:49 | -31.33307 | -71.18419 | 36138 ft | 407 kts | 350° |
| 2026-04-21 21:50 | -31.27692 | -71.18079 | 36138 ft | 406 kts | 350° |
| 2026-04-21 21:50 | -31.22043 | -71.17740 | 36136 ft | 406 kts | 350° |
| 2026-04-21 21:51 | -31.16415 | -71.17405 | 36106 ft | 405 kts | 350° |
| 2026-04-21 21:51 | -31.10783 | -71.17067 | 36114 ft | 405 kts | 350° |
| 2026-04-21 21:52 | -31.05149 | -71.16731 | 36118 ft | 405 kts | 350° |
| 2026-04-21 21:52 | -30.99522 | -71.16399 | 36124 ft | 405 kts | 350° |
| 2026-04-21 21:53 | -30.93896 | -71.16062 | 36122 ft | 405 kts | 350° |
| 2026-04-21 21:53 | -30.88276 | -71.15721 | 36097 ft | 405 kts | 350° |
| 2026-04-21 21:54 | -30.82681 | -71.15375 | 36103 ft | 405 kts | 350° |
| 2026-04-21 21:54 | -30.77061 | -71.15031 | 36103 ft | 405 kts | 350° |
| 2026-04-21 21:55 | -30.71436 | -71.14695 | 36100 ft | 405 kts | 350° |
| 2026-04-21 21:55 | -30.65795 | -71.14360 | 36087 ft | 406 kts | 350° |
| 2026-04-21 21:56 | -30.60153 | -71.14021 | 36105 ft | 405 kts | 350° |
| 2026-04-21 21:56 | -30.54527 | -71.13688 | 36120 ft | 405 kts | 350° |
| 2026-04-21 21:57 | -30.48930 | -71.13358 | 36127 ft | 405 kts | 350° |
| 2026-04-21 21:57 | -30.43309 | -71.13024 | 36130 ft | 405 kts | 350° |
| 2026-04-21 21:58 | -30.37679 | -71.12686 | 36101 ft | 404 kts | 350° |
| 2026-04-21 21:58 | -30.32066 | -71.12350 | 36123 ft | 404 kts | 350° |
| 2026-04-21 21:59 | -30.26452 | -71.12032 | 36128 ft | 404 kts | 350° |
| 2026-04-21 21:59 | -30.20829 | -71.11637 | 36126 ft | 407 kts | 352° |
| 2026-04-21 22:00 | -30.15168 | -71.11003 | 36124 ft | 409 kts | 353° |
| 2026-04-21 22:00 | -30.09504 | -71.10316 | 36094 ft | 409 kts | 352° |
| 2026-04-21 22:01 | -30.03889 | -71.09691 | 36114 ft | 408 kts | 352° |
| 2026-04-21 22:01 | -29.98249 | -71.09097 | 36127 ft | 407 kts | 352° |
| 2026-04-21 22:02 | -29.92603 | -71.08500 | 36118 ft | 407 kts | 352° |
| 2026-04-21 22:02 | -29.86967 | -71.07899 | 36122 ft | 407 kts | 352° |
| 2026-04-21 22:03 | -29.81325 | -71.07296 | 36125 ft | 407 kts | 352° |
| 2026-04-21 22:03 | -29.75683 | -71.06690 | 36131 ft | 406 kts | 352° |
| 2026-04-21 22:04 | -29.70047 | -71.06088 | 36133 ft | 407 kts | 352° |
| 2026-04-21 22:04 | -29.64415 | -71.05488 | 36134 ft | 406 kts | 352° |
| 2026-04-21 22:05 | -29.58784 | -71.04887 | 36145 ft | 407 kts | 352° |
| 2026-04-21 22:05 | -29.53190 | -71.04286 | 36119 ft | 406 kts | 352° |
| 2026-04-21 22:06 | -29.47575 | -71.03688 | 36122 ft | 405 kts | 352° |
| 2026-04-21 22:06 | -29.41964 | -71.03025 | 36126 ft | 407 kts | 354° |
| 2026-04-21 22:07 | -29.36339 | -71.02136 | 36131 ft | 409 kts | 355° |
| 2026-04-21 22:07 | -29.30710 | -71.01192 | 36124 ft | 409 kts | 355° |
| 2026-04-21 22:08 | -29.25085 | -71.00325 | 36104 ft | 405 kts | 353° |
| 2026-04-21 22:08 | -29.19515 | -70.99776 | 36107 ft | 400 kts | 351° |
| 2026-04-21 22:09 | -29.13963 | -70.99345 | 36109 ft | 400 kts | 351° |
| 2026-04-21 22:09 | -29.08407 | -70.98871 | 36102 ft | 401 kts | 351° |
| 2026-04-21 22:10 | -29.02878 | -70.98355 | 36110 ft | 401 kts | 352° |
| 2026-04-21 22:10 | -28.97318 | -70.97813 | 36080 ft | 401 kts | 352° |
| 2026-04-21 22:11 | -28.91771 | -70.97280 | 36083 ft | 400 kts | 352° |
| 2026-04-21 22:11 | -28.86221 | -70.96763 | 36090 ft | 400 kts | 352° |
| 2026-04-21 22:12 | -28.80676 | -70.96248 | 36089 ft | 399 kts | 352° |
| 2026-04-21 22:12 | -28.75133 | -70.95735 | 36084 ft | 400 kts | 352° |
| 2026-04-21 22:13 | -28.69590 | -70.95217 | 36062 ft | 399 kts | 352° |
| 2026-04-21 22:13 | -28.64051 | -70.94698 | 36080 ft | 399 kts | 352° |
| 2026-04-21 22:14 | -28.58516 | -70.94187 | 36092 ft | 399 kts | 352° |
| 2026-04-21 22:14 | -28.52981 | -70.93671 | 36095 ft | 399 kts | 352° |
| 2026-04-21 22:15 | -28.47446 | -70.93145 | 36092 ft | 399 kts | 352° |
| 2026-04-21 22:15 | -28.41918 | -70.92565 | 36072 ft | 399 kts | 353° |
| 2026-04-21 22:16 | -28.36430 | -70.91977 | 36092 ft | 399 kts | 352° |
| 2026-04-21 22:16 | -28.30913 | -70.91401 | 36093 ft | 398 kts | 352° |
| 2026-04-21 22:17 | -28.25402 | -70.90836 | 36093 ft | 398 kts | 352° |
| 2026-04-21 22:17 | -28.19888 | -70.90255 | 36096 ft | 398 kts | 352° |
| 2026-04-21 22:18 | -28.14379 | -70.89663 | 36067 ft | 398 kts | 353° |
| 2026-04-21 22:18 | -28.08863 | -70.89067 | 36078 ft | 398 kts | 353° |
| 2026-04-21 22:19 | -28.03360 | -70.88477 | 36087 ft | 398 kts | 353° |
| 2026-04-21 22:19 | -27.97853 | -70.87894 | 36077 ft | 397 kts | 352° |
| 2026-04-21 22:20 | -27.92381 | -70.87316 | 36077 ft | 398 kts | 352° |
| 2026-04-21 22:20 | -27.86865 | -70.86731 | 36063 ft | 398 kts | 353° |
| 2026-04-21 22:21 | -27.81348 | -70.86151 | 36072 ft | 398 kts | 353° |
| 2026-04-21 22:21 | -27.75830 | -70.85569 | 36086 ft | 398 kts | 353° |
| 2026-04-21 22:22 | -27.70315 | -70.84983 | 36095 ft | 398 kts | 353° |
| 2026-04-21 22:22 | -27.64807 | -70.84400 | 36097 ft | 398 kts | 353° |
| 2026-04-21 22:23 | -27.59295 | -70.83821 | 36070 ft | 398 kts | 353° |
| 2026-04-21 22:23 | -27.53784 | -70.83240 | 36085 ft | 398 kts | 353° |
| 2026-04-21 22:24 | -27.48277 | -70.82662 | 36094 ft | 397 kts | 353° |
| 2026-04-21 22:24 | -27.42807 | -70.82081 | 36097 ft | 397 kts | 353° |
| 2026-04-21 22:25 | -27.37300 | -70.81499 | 36081 ft | 397 kts | 353° |
| 2026-04-21 22:25 | -27.31797 | -70.80931 | 36082 ft | 397 kts | 353° |
| 2026-04-21 22:26 | -27.26288 | -70.80353 | 36067 ft | 398 kts | 353° |
| 2026-04-21 22:26 | -27.20777 | -70.79771 | 36076 ft | 398 kts | 353° |
| 2026-04-21 22:27 | -27.15266 | -70.79192 | 36083 ft | 398 kts | 353° |
| 2026-04-21 22:27 | -27.09755 | -70.78619 | 36091 ft | 397 kts | 353° |
| 2026-04-21 22:28 | -27.04249 | -70.78049 | 36097 ft | 397 kts | 353° |
| 2026-04-21 22:28 | -26.98781 | -70.77480 | 36101 ft | 397 kts | 353° |
| 2026-04-21 22:29 | -26.93283 | -70.76901 | 36106 ft | 397 kts | 353° |
| 2026-04-21 22:29 | -26.87776 | -70.76326 | 36112 ft | 397 kts | 353° |
| 2026-04-21 22:30 | -26.83706 | -70.75901 | 36104 ft | 397 kts | 353° |
| 2026-04-21 22:30 | -26.78204 | -70.75330 | 36107 ft | 397 kts | 353° |
| 2026-04-21 22:31 | -26.73573 | -70.74847 | 36113 ft | 397 kts | 353° |
| 2026-04-21 22:31 | -26.68326 | -70.74303 | 36083 ft | 397 kts | 354° |
| 2026-04-21 22:32 | -26.62817 | -70.73592 | 36091 ft | 401 kts | 356° |
| 2026-04-21 22:32 | -26.57289 | -70.72603 | 36096 ft | 403 kts | 358° |
| 2026-04-21 22:33 | -26.51798 | -70.71587 | 36101 ft | 402 kts | 357° |
| 2026-04-21 22:33 | -26.46265 | -70.70622 | 36105 ft | 402 kts | 356° |
| 2026-04-21 22:34 | -26.40751 | -70.69863 | 36085 ft | 397 kts | 354° |
| 2026-04-21 22:34 | -26.35261 | -70.69440 | 36096 ft | 395 kts | 352° |
| 2026-04-21 22:35 | -26.29773 | -70.69048 | 36101 ft | 396 kts | 353° |
| 2026-04-21 22:35 | -26.24279 | -70.68586 | 36110 ft | 396 kts | 353° |
| 2026-04-21 22:36 | -26.16026 | -70.67837 | 36114 ft | 396 kts | 353° |
| 2026-04-21 22:36 | -26.10530 | -70.67356 | 36084 ft | 396 kts | 354° |
| 2026-04-21 22:37 | -26.05035 | -70.66877 | 36090 ft | 396 kts | 354° |
| 2026-04-21 22:37 | -25.99540 | -70.66396 | 36097 ft | 396 kts | 354° |
| 2026-04-21 22:38 | -25.94052 | -70.65912 | 36094 ft | 396 kts | 354° |
| 2026-04-21 22:38 | -25.88560 | -70.65436 | 36096 ft | 395 kts | 354° |
| 2026-04-21 22:39 | -25.83067 | -70.64965 | 36079 ft | 396 kts | 354° |
| 2026-04-21 22:39 | -25.77572 | -70.64481 | 36080 ft | 396 kts | 354° |
| 2026-04-21 22:40 | -25.72116 | -70.64001 | 36085 ft | 396 kts | 354° |
| 2026-04-21 22:40 | -25.66624 | -70.63528 | 36088 ft | 396 kts | 354° |
| 2026-04-21 22:41 | -25.61138 | -70.63051 | 36088 ft | 396 kts | 354° |
| 2026-04-21 22:41 | -25.56542 | -70.62654 | 36088 ft | 395 kts | 354° |
| 2026-04-21 22:42 | -25.51089 | -70.62178 | 36064 ft | 396 kts | 354° |
| 2026-04-21 22:42 | -25.45595 | -70.61693 | 36080 ft | 396 kts | 354° |
| 2026-04-21 22:43 | -25.40096 | -70.61217 | 36082 ft | 397 kts | 354° |
| 2026-04-21 22:43 | -25.34587 | -70.60747 | 36080 ft | 397 kts | 354° |
| 2026-04-21 22:44 | -25.29072 | -70.60272 | 36089 ft | 397 kts | 354° |
| 2026-04-21 22:44 | -25.23558 | -70.59799 | 36064 ft | 398 kts | 355° |
| 2026-04-21 22:45 | -25.18035 | -70.59325 | 36070 ft | 398 kts | 355° |
| 2026-04-21 22:45 | -25.12511 | -70.58854 | 36082 ft | 398 kts | 355° |
| 2026-04-21 22:46 | -25.06980 | -70.58378 | 36071 ft | 399 kts | 355° |
| 2026-04-21 22:46 | -25.04213 | -70.58136 | 35823 ft | 399 kts | 355° |
| 2026-04-21 22:46 | -25.01444 | -70.57895 | 35585 ft | 399 kts | 355° |
| 2026-04-21 22:47 | -24.98712 | -70.57656 | 35353 ft | 400 kts | 355° |
| 2026-04-21 22:47 | -24.95931 | -70.57416 | 35118 ft | 401 kts | 355° |
| 2026-04-21 22:47 | -24.93162 | -70.57179 | 34749 ft | 398 kts | 355° |
| 2026-04-21 22:47 | -24.90410 | -70.56942 | 34266 ft | 396 kts | 355° |
| 2026-04-21 22:48 | -24.87671 | -70.56709 | 33727 ft | 394 kts | 355° |
| 2026-04-21 22:48 | -24.84945 | -70.56476 | 33222 ft | 391 kts | 355° |
| 2026-04-21 22:48 | -24.82248 | -70.56243 | 32736 ft | 388 kts | 355° |
| 2026-04-21 22:48 | -24.79567 | -70.56027 | 32236 ft | 384 kts | 354° |
| 2026-04-21 22:49 | -24.76912 | -70.55930 | 31713 ft | 380 kts | 352° |
| 2026-04-21 22:49 | -24.74280 | -70.55932 | 31213 ft | 377 kts | 351° |
| 2026-04-21 22:49 | -24.71671 | -70.55985 | 30701 ft | 374 kts | 350° |
| 2026-04-21 22:49 | -24.69074 | -70.56052 | 30196 ft | 373 kts | 350° |
| 2026-04-21 22:50 | -24.66480 | -70.56110 | 29640 ft | 372 kts | 351° |
| 2026-04-21 22:50 | -24.63900 | -70.56150 | 29131 ft | 369 kts | 352° |
| 2026-04-21 22:50 | -24.61346 | -70.56175 | 28659 ft | 366 kts | 352° |
| 2026-04-21 22:50 | -24.58812 | -70.56193 | 28175 ft | 363 kts | 352° |
| 2026-04-21 22:51 | -24.56296 | -70.56208 | 27700 ft | 360 kts | 352° |
| 2026-04-21 22:51 | -24.53834 | -70.56222 | 27239 ft | 358 kts | 353° |
| 2026-04-21 22:51 | -24.51352 | -70.56235 | 26785 ft | 356 kts | 353° |
| 2026-04-21 22:51 | -24.48884 | -70.56247 | 26334 ft | 354 kts | 353° |
| 2026-04-21 22:52 | -24.46432 | -70.56260 | 25900 ft | 351 kts | 353° |
| 2026-04-21 22:52 | -24.43994 | -70.56271 | 25469 ft | 349 kts | 353° |
| 2026-04-21 22:52 | -24.41570 | -70.56283 | 25042 ft | 348 kts | 353° |
| 2026-04-21 22:52 | -24.39157 | -70.56298 | 24627 ft | 346 kts | 354° |
| 2026-04-21 22:53 | -24.36753 | -70.56316 | 24208 ft | 345 kts | 354° |
| 2026-04-21 22:53 | -24.34357 | -70.56336 | 23770 ft | 344 kts | 354° |
| 2026-04-21 22:53 | -24.31969 | -70.56355 | 23307 ft | 343 kts | 354° |
| 2026-04-21 22:53 | -24.29594 | -70.56367 | 22866 ft | 340 kts | 355° |
| 2026-04-21 22:54 | -24.27230 | -70.56377 | 22439 ft | 338 kts | 355° |
| 2026-04-21 22:54 | -24.24884 | -70.56388 | 22016 ft | 336 kts | 355° |
| 2026-04-21 22:54 | -24.22549 | -70.56400 | 21592 ft | 335 kts | 355° |
| 2026-04-21 22:54 | -24.20229 | -70.56400 | 21165 ft | 333 kts | 356° |
| 2026-04-21 22:55 | -24.17912 | -70.56341 | 20729 ft | 332 kts | 358° |
| 2026-04-21 22:55 | -24.15610 | -70.56246 | 20303 ft | 331 kts | 358° |
| 2026-04-21 22:55 | -24.13318 | -70.56138 | 19871 ft | 329 kts | 359° |
| 2026-04-21 22:55 | -24.11029 | -70.56030 | 19441 ft | 328 kts | 359° |
| 2026-04-21 22:56 | -24.08777 | -70.55930 | 19016 ft | 328 kts | 359° |
| 2026-04-21 22:56 | -24.06501 | -70.55837 | 18595 ft | 327 kts | 359° |
| 2026-04-21 22:56 | -24.04232 | -70.55747 | 18143 ft | 326 kts | 359° |
| 2026-04-21 22:56 | -24.01969 | -70.55658 | 17705 ft | 324 kts | 359° |
| 2026-04-21 22:57 | -23.99723 | -70.55570 | 17288 ft | 322 kts | 359° |
| 2026-04-21 22:57 | -23.97494 | -70.55483 | 16883 ft | 319 kts | 359° |
| 2026-04-21 22:57 | -23.95282 | -70.55399 | 16478 ft | 317 kts | 359° |
| 2026-04-21 22:57 | -23.93081 | -70.55315 | 16075 ft | 316 kts | 360° |
| 2026-04-21 22:58 | -23.90892 | -70.55230 | 15682 ft | 314 kts | 360° |
| 2026-04-21 22:58 | -23.88713 | -70.55147 | 15291 ft | 313 kts | 360° |
| 2026-04-21 22:58 | -23.86544 | -70.55063 | 14899 ft | 311 kts | 0° |
| 2026-04-21 22:58 | -23.84383 | -70.54979 | 14514 ft | 310 kts | 0° |
| 2026-04-21 22:59 | -23.82228 | -70.54896 | 14109 ft | 309 kts | 0° |
| 2026-04-21 22:59 | -23.80076 | -70.54814 | 13702 ft | 309 kts | 0° |
| 2026-04-21 22:59 | -23.77937 | -70.54732 | 13304 ft | 307 kts | 0° |
| 2026-04-21 22:59 | -23.75805 | -70.54647 | 12902 ft | 305 kts | 1° |
| 2026-04-21 23:00 | -23.73688 | -70.54564 | 12506 ft | 303 kts | 0° |
| 2026-04-21 23:00 | -23.71584 | -70.54484 | 12122 ft | 302 kts | 0° |
| 2026-04-21 23:00 | -23.69494 | -70.54402 | 11727 ft | 300 kts | 0° |
| 2026-04-21 23:00 | -23.67411 | -70.54320 | 11333 ft | 299 kts | 0° |
| 2026-04-21 23:01 | -23.65336 | -70.54238 | 10946 ft | 298 kts | 360° |
| 2026-04-21 23:01 | -23.63272 | -70.54161 | 10558 ft | 296 kts | 0° |
| 2026-04-21 23:01 | -23.61218 | -70.54085 | 10258 ft | 294 kts | 360° |
| 2026-04-21 23:01 | -23.59168 | -70.54010 | 10124 ft | 296 kts | 1° |
| 2026-04-21 23:02 | -23.57109 | -70.53930 | 9994 ft | 297 kts | 1° |
| 2026-04-21 23:02 | -23.55067 | -70.53849 | 9437 ft | 298 kts | 1° |
| 2026-04-21 23:02 | -23.53019 | -70.53767 | 8742 ft | 292 kts | 1° |
| 2026-04-21 23:02 | -23.51005 | -70.53686 | 8125 ft | 287 kts | 1° |
| 2026-04-21 23:03 | -23.49019 | -70.53548 | 7521 ft | 285 kts | 3° |
| 2026-04-21 23:03 | -23.47027 | -70.53349 | 6998 ft | 288 kts | 4° |
| 2026-04-21 23:03 | -23.45059 | -70.53130 | 6575 ft | 281 kts | 4° |
| 2026-04-21 23:03 | -23.43126 | -70.52910 | 5814 ft | 277 kts | 4° |
| 2026-04-21 23:04 | -23.41278 | -70.52703 | 5583 ft | 255 kts | 4° |
| 2026-04-21 23:04 | -23.39556 | -70.52517 | 5529 ft | 242 kts | 4° |
| 2026-04-21 23:04 | -23.37918 | -70.52347 | 5450 ft | 229 kts | 4° |
| 2026-04-21 23:04 | -23.36375 | -70.52187 | 5320 ft | 216 kts | 4° |
| 2026-04-21 23:05 | -23.34938 | -70.52038 | 5261 ft | 198 kts | 4° |
| 2026-04-21 23:05 | -23.33631 | -70.51902 | 5162 ft | 181 kts | 4° |
| 2026-04-21 23:05 | -23.32429 | -70.51774 | 5075 ft | 167 kts | 6° |
| 2026-04-21 23:05 | -23.31327 | -70.51422 | 4846 ft | 166 kts | 23° |
| 2026-04-21 23:06 | -23.30367 | -70.50735 | 4595 ft | 166 kts | 39° |
| 2026-04-21 23:06 | -23.29628 | -70.49784 | 4370 ft | 165 kts | 55° |
| 2026-04-21 23:06 | -23.29166 | -70.48642 | 4160 ft | 166 kts | 71° |
| 2026-04-21 23:06 | -23.29026 | -70.47411 | 3935 ft | 168 kts | 88° |
| 2026-04-21 23:07 | -23.29212 | -70.46161 | 3703 ft | 168 kts | 107° |
| 2026-04-21 23:07 | -23.29727 | -70.45021 | 3471 ft | 169 kts | 123° |
| 2026-04-21 23:07 | -23.30523 | -70.44088 | 3239 ft | 168 kts | 140° |
| 2026-04-21 23:07 | -23.31528 | -70.43449 | 2998 ft | 167 kts | 158° |
| 2026-04-21 23:08 | -23.32649 | -70.43156 | 2766 ft | 164 kts | 175° |
| 2026-04-21 23:08 | -23.33759 | -70.43204 | 2567 ft | 156 kts | 186° |
| 2026-04-21 23:08 | -23.34821 | -70.43335 | 2327 ft | 151 kts | 186° |
| 2026-04-21 23:08 | -23.35850 | -70.43459 | 2110 ft | 147 kts | 186° |
| 2026-04-21 23:09 | -23.36854 | -70.43581 | 1897 ft | 143 kts | 185° |
| 2026-04-21 23:09 | -23.37834 | -70.43701 | 1704 ft | 141 kts | 186° |
| 2026-04-21 23:09 | -23.38805 | -70.43820 | 1493 ft | 140 kts | 186° |
| 2026-04-21 23:09 | -23.39770 | -70.43933 | 1299 ft | 139 kts | 186° |
| 2026-04-21 23:10 | -23.40734 | -70.44050 | 1069 ft | 140 kts | 186° |
| 2026-04-21 23:10 | -23.41699 | -70.44187 | 846 ft | 139 kts | 185° |
| 2026-04-21 23:10 | -23.42655 | -70.44288 | 644 ft | 138 kts | 187° |
| 2026-04-21 23:10 | -23.43604 | -70.44408 | 421 ft | 136 kts | 186° |
| 2026-04-21 23:11 | -23.44613 | -70.44517 | 663 ft | 163 kts | 186° |
| 2026-04-21 23:11 | -23.45801 | -70.44647 | 1481 ft | 178 kts | 186° |
| 2026-04-21 23:11 | -23.47112 | -70.44788 | 2229 ft | 200 kts | 186° |
| 2026-04-21 23:11 | -23.48515 | -70.44938 | 2904 ft | 205 kts | 186° |
| 2026-04-21 23:12 | -23.49966 | -70.45091 | 3317 ft | 217 kts | 186° |
| 2026-04-21 23:12 | -23.51550 | -70.45256 | 3664 ft | 235 kts | 187° |
| 2026-04-21 23:12 | -23.53182 | -70.45471 | 4297 ft | 238 kts | 188° |
| 2026-04-21 23:12 | -23.54823 | -70.45702 | 4465 ft | 238 kts | 189° |
| 2026-04-21 23:13 | -23.56467 | -70.45930 | 4503 ft | 238 kts | 188° |
| 2026-04-21 23:13 | -23.58111 | -70.46151 | 4502 ft | 238 kts | 188° |
| 2026-04-21 23:13 | -23.59755 | -70.46367 | 4504 ft | 238 kts | 188° |
| 2026-04-21 23:13 | -23.61396 | -70.46576 | 4511 ft | 238 kts | 188° |
| 2026-04-21 23:14 | -23.63039 | -70.46782 | 4502 ft | 238 kts | 188° |
| 2026-04-21 23:14 | -23.64683 | -70.46986 | 4514 ft | 238 kts | 188° |
| 2026-04-21 23:14 | -23.66328 | -70.47188 | 4500 ft | 238 kts | 188° |
| 2026-04-21 23:14 | -23.67970 | -70.47388 | 4498 ft | 238 kts | 188° |
| 2026-04-21 23:15 | -23.69615 | -70.47588 | 4496 ft | 238 kts | 188° |
| 2026-04-21 23:15 | -23.71264 | -70.47790 | 4494 ft | 238 kts | 188° |
| 2026-04-21 23:15 | -23.72826 | -70.48293 | 4490 ft | 234 kts | 216° |
| 2026-04-21 23:15 | -23.73869 | -70.49594 | 4507 ft | 229 kts | 251° |
| 2026-04-21 23:16 | -23.74276 | -70.51265 | 4500 ft | 229 kts | 259° |
| 2026-04-21 23:16 | -23.74671 | -70.52961 | 4907 ft | 232 kts | 251° |
| 2026-04-21 23:16 | -23.75555 | -70.54442 | 5685 ft | 237 kts | 224° |
| 2026-04-21 23:16 | -23.76944 | -70.55441 | 6295 ft | 245 kts | 205° |
| 2026-04-21 23:17 | -23.78569 | -70.55923 | 6448 ft | 247 kts | 184° |
| 2026-04-21 23:17 | -23.80237 | -70.55566 | 6495 ft | 249 kts | 152° |
| 2026-04-21 23:17 | -23.81530 | -70.54337 | 6494 ft | 248 kts | 121° |
| 2026-04-21 23:17 | -23.82004 | -70.52564 | 6495 ft | 248 kts | 88° |
| 2026-04-21 23:18 | -23.81615 | -70.50742 | 6495 ft | 248 kts | 61° |
| 2026-04-21 23:18 | -23.80557 | -70.49283 | 6495 ft | 245 kts | 34° |
| 2026-04-21 23:18 | -23.79048 | -70.48484 | 6492 ft | 241 kts | 9° |
| 2026-04-21 23:18 | -23.77397 | -70.48477 | 6498 ft | 238 kts | 347° |
| 2026-04-21 23:19 | -23.75767 | -70.48806 | 6498 ft | 239 kts | 347° |
| 2026-04-21 23:19 | -23.74132 | -70.49134 | 6503 ft | 239 kts | 347° |
| 2026-04-21 23:19 | -23.72502 | -70.49457 | 6501 ft | 237 kts | 348° |
| 2026-04-21 23:19 | -23.70880 | -70.49776 | 6503 ft | 237 kts | 348° |
| 2026-04-21 23:20 | -23.69255 | -70.50097 | 6498 ft | 237 kts | 348° |
| 2026-04-21 23:20 | -23.67632 | -70.50418 | 6502 ft | 237 kts | 348° |
| 2026-04-21 23:20 | -23.66008 | -70.50739 | 6503 ft | 237 kts | 348° |
| 2026-04-21 23:20 | -23.64385 | -70.51060 | 6505 ft | 237 kts | 348° |
| 2026-04-21 23:21 | -23.62760 | -70.51381 | 6504 ft | 237 kts | 348° |
| 2026-04-21 23:21 | -23.61135 | -70.51700 | 6503 ft | 237 kts | 348° |
| 2026-04-21 23:21 | -23.59510 | -70.52020 | 6507 ft | 237 kts | 348° |
| 2026-04-21 23:21 | -23.57888 | -70.52339 | 6506 ft | 237 kts | 348° |
| 2026-04-21 23:22 | -23.56265 | -70.52658 | 6504 ft | 237 kts | 348° |
| 2026-04-21 23:22 | -23.54641 | -70.52978 | 6505 ft | 237 kts | 348° |
| 2026-04-21 23:22 | -23.53017 | -70.53296 | 6506 ft | 237 kts | 348° |
| 2026-04-21 23:22 | -23.51393 | -70.53598 | 6506 ft | 237 kts | 352° |
| 2026-04-21 23:23 | -23.49742 | -70.53570 | 6511 ft | 238 kts | 4° |
| 2026-04-21 23:23 | -23.48089 | -70.53390 | 6511 ft | 239 kts | 4° |
| 2026-04-21 23:23 | -23.46430 | -70.53217 | 6511 ft | 240 kts | 3° |
| 2026-04-21 23:23 | -23.44775 | -70.53047 | 6345 ft | 238 kts | 3° |
| 2026-04-21 23:24 | -23.43155 | -70.52882 | 6172 ft | 228 kts | 3° |
| 2026-04-21 23:24 | -23.41618 | -70.52724 | 6022 ft | 216 kts | 3° |
| 2026-04-21 23:24 | -23.40161 | -70.52575 | 5781 ft | 211 kts | 3° |
| 2026-04-21 23:24 | -23.38685 | -70.52425 | 5487 ft | 209 kts | 4° |
| 2026-04-21 23:25 | -23.37265 | -70.52280 | 5319 ft | 198 kts | 4° |
| 2026-04-21 23:25 | -23.35968 | -70.52146 | 5207 ft | 182 kts | 4° |
| 2026-04-21 23:25 | -23.34748 | -70.52019 | 5082 ft | 170 kts | 4° |
| 2026-04-21 23:25 | -23.33605 | -70.51901 | 4952 ft | 161 kts | 4° |
| 2026-04-21 23:26 | -23.32505 | -70.51787 | 4744 ft | 157 kts | 5° |
| 2026-04-21 23:26 | -23.31449 | -70.51484 | 4493 ft | 158 kts | 21° |
| 2026-04-21 23:26 | -23.30506 | -70.50866 | 4256 ft | 159 kts | 38° |
| 2026-04-21 23:26 | -23.29751 | -70.49982 | 3987 ft | 161 kts | 53° |
| 2026-04-21 23:27 | -23.29244 | -70.48905 | 3762 ft | 161 kts | 69° |
| 2026-04-21 23:27 | -23.29027 | -70.47712 | 3525 ft | 161 kts | 85° |
| 2026-04-21 23:27 | -23.29124 | -70.46500 | 3290 ft | 161 kts | 102° |
| 2026-04-21 23:27 | -23.29528 | -70.45368 | 3079 ft | 160 kts | 118° |
| 2026-04-21 23:28 | -23.30193 | -70.44406 | 2846 ft | 159 kts | 135° |
| 2026-04-21 23:28 | -23.31073 | -70.43688 | 2668 ft | 157 kts | 152° |
| 2026-04-21 23:28 | -23.32093 | -70.43261 | 2570 ft | 157 kts | 167° |
| 2026-04-21 23:28 | -23.33175 | -70.43144 | 2593 ft | 155 kts | 182° |
| 2026-04-21 23:29 | -23.34245 | -70.43265 | 2468 ft | 154 kts | 186° |
| 2026-04-21 23:29 | -23.35291 | -70.43393 | 2230 ft | 149 kts | 186° |
| 2026-04-21 23:29 | -23.36307 | -70.43517 | 2014 ft | 145 kts | 186° |
| 2026-04-21 23:29 | -23.37304 | -70.43637 | 1805 ft | 143 kts | 185° |
| 2026-04-21 23:30 | -23.38288 | -70.43755 | 1598 ft | 141 kts | 185° |
| 2026-04-21 23:30 | -23.39244 | -70.43871 | 1391 ft | 139 kts | 187° |
| 2026-04-21 23:30 | -23.40206 | -70.43987 | 1179 ft | 138 kts | 187° |
| 2026-04-21 23:30 | -23.41159 | -70.44102 | 963 ft | 138 kts | 186° |
| 2026-04-21 23:31 | -23.42110 | -70.44228 | 744 ft | 137 kts | 186° |
| 2026-04-21 23:31 | -23.43056 | -70.44337 | 554 ft | 137 kts | 186° |
| 2026-04-21 23:31 | -23.43979 | -70.44448 | 397 ft | 124 kts | 186° |
| 2026-04-21 23:31 | -23.44648 | -70.44530 | 371 ft | 70 kts | 186° |
| 2026-04-21 23:32 | -23.44970 | -70.44568 | 367 ft | 28 kts | 186° |
| 2026-04-21 23:32 | -23.45157 | -70.44591 | 367 ft | 22 kts | 186° |
| 2026-04-21 23:32 | -23.45214 | -70.44552 | 363 ft | 7 kts | 96° |
| 2026-04-21 23:32 | -23.45220 | -70.44501 | 361 ft | 6 kts | 96° |
| 2026-04-21 23:33 | -23.45225 | -70.44454 | 364 ft | 7 kts | 97° |
| 2026-04-21 23:33 | -23.45213 | -70.44414 | 364 ft | 6 kts | 15° |
| 2026-04-21 23:33 | -23.45146 | -70.44399 | 364 ft | 12 kts | 6° |
| 2026-04-21 23:33 | -23.45072 | -70.44390 | 364 ft | 10 kts | 6° |
| 2026-04-21 23:34 | -23.45012 | -70.44383 | 369 ft | 8 kts | 6° |
| 2026-04-21 23:34 | -23.44988 | -70.44330 | 364 ft | 14 kts | 94° |
| 2026-04-21 23:34 | -23.44957 | -70.44267 | 365 ft | 8 kts | 19° |
| 2026-04-21 23:34 | -23.44918 | -70.44240 | 365 ft | 5 kts | 86° |
| 2026-04-21 23:35 | -23.44918 | -70.44206 | 365 ft | 4 kts | 92° |
| 2026-04-21 23:35 | -23.44920 | -70.44184 | 366 ft | 2 kts | 96° |
| 2026-04-21 23:35 | -23.44920 | -70.44178 | 366 ft | 1 kts | 96° |
| 2026-04-21 23:35 | -23.44921 | -70.44176 | 366 ft | 0 kts | 96° |